sensor_id;sensor_type;location;lat;lon;timestamp;P1;durP1;ratioP1;P2;durP2;ratioP2
62584;SDS011;48643;51.670;5.808;2022-07-06T00:02:21;5.95;;;3.40;;
62584;SDS011;48643;51.670;5.808;2022-07-06T00:04:49;6.97;;;3.55;;
62584;SDS011;48643;51.670;5.808;2022-07-06T00:07:16;4.85;;;3.40;;
62584;SDS011;48643;51.670;5.808;2022-07-06T00:09:43;5.32;;;3.38;;
62584;SDS011;48643;51.670;5.808;2022-07-06T00:12:11;5.47;;;3.45;;
62584;SDS011;48643;51.670;5.808;2022-07-06T00:14:38;4.65;;;3.33;;
62584;SDS011;48643;51.670;5.808;2022-07-06T00:17:06;4.50;;;3.33;;
62584;SDS011;48643;51.670;5.808;2022-07-06T00:19:33;5.47;;;3.70;;
62584;SDS011;48643;51.670;5.808;2022-07-06T00:22:01;4.47;;;3.30;;
62584;SDS011;48643;51.670;5.808;2022-07-06T00:24:28;5.93;;;3.35;;
62584;SDS011;48643;51.670;5.808;2022-07-06T00:26:55;6.57;;;3.20;;
62584;SDS011;48643;51.670;5.808;2022-07-06T00:29:23;4.03;;;3.15;;
62584;SDS011;48643;51.670;5.808;2022-07-06T00:31:50;5.03;;;3.30;;
62584;SDS011;48643;51.670;5.808;2022-07-06T00:34:18;4.95;;;3.30;;
62584;SDS011;48643;51.670;5.808;2022-07-06T00:36:45;3.90;;;3.20;;
62584;SDS011;48643;51.670;5.808;2022-07-06T00:39:13;4.60;;;3.15;;
62584;SDS011;48643;51.670;5.808;2022-07-06T00:41:40;6.10;;;3.40;;
62584;SDS011;48643;51.670;5.808;2022-07-06T00:44:08;7.30;;;3.40;;
62584;SDS011;48643;51.670;5.808;2022-07-06T00:46:36;6.18;;;3.35;;
62584;SDS011;48643;51.670;5.808;2022-07-06T00:49:03;5.20;;;3.22;;
62584;SDS011;48643;51.670;5.808;2022-07-06T00:51:32;3.67;;;3.17;;
62584;SDS011;48643;51.670;5.808;2022-07-06T00:54:02;4.32;;;3.22;;
62584;SDS011;48643;51.670;5.808;2022-07-06T00:56:31;6.18;;;3.30;;
62584;SDS011;48643;51.670;5.808;2022-07-06T00:59:01;5.93;;;3.07;;
62584;SDS011;48643;51.670;5.808;2022-07-06T01:01:29;4.38;;;3.10;;
62584;SDS011;48643;51.670;5.808;2022-07-06T01:03:57;5.20;;;3.15;;
62584;SDS011;48643;51.670;5.808;2022-07-06T01:06:25;6.95;;;3.15;;
62584;SDS011;48643;51.670;5.808;2022-07-06T01:08:53;4.72;;;3.03;;
62584;SDS011;48643;51.670;5.808;2022-07-06T01:11:21;4.07;;;2.75;;
62584;SDS011;48643;51.670;5.808;2022-07-06T01:13:49;4.55;;;3.00;;
62584;SDS011;48643;51.670;5.808;2022-07-06T01:16:17;6.45;;;2.72;;
62584;SDS011;48643;51.670;5.808;2022-07-06T01:18:46;4.35;;;2.80;;
62584;SDS011;48643;51.670;5.808;2022-07-06T01:21:14;4.37;;;2.70;;
62584;SDS011;48643;51.670;5.808;2022-07-06T01:23:43;4.53;;;2.78;;
62584;SDS011;48643;51.670;5.808;2022-07-06T01:26:11;3.42;;;2.70;;
62584;SDS011;48643;51.670;5.808;2022-07-06T01:28:39;6.97;;;2.90;;
62584;SDS011;48643;51.670;5.808;2022-07-06T01:31:17;4.03;;;2.45;;
62584;SDS011;48643;51.670;5.808;2022-07-06T01:33:45;4.07;;;3.05;;
62584;SDS011;48643;51.670;5.808;2022-07-06T01:36:12;5.35;;;2.80;;
62584;SDS011;48643;51.670;5.808;2022-07-06T01:41:16;3.35;;;2.65;;
62584;SDS011;48643;51.670;5.808;2022-07-06T01:43:44;4.18;;;2.60;;
62584;SDS011;48643;51.670;5.808;2022-07-06T01:46:12;4.18;;;2.65;;
62584;SDS011;48643;51.670;5.808;2022-07-06T01:48:40;4.47;;;2.60;;
62584;SDS011;48643;51.670;5.808;2022-07-06T01:51:08;5.45;;;2.80;;
62584;SDS011;48643;51.670;5.808;2022-07-06T01:53:37;4.20;;;2.70;;
62584;SDS011;48643;51.670;5.808;2022-07-06T01:58:33;3.60;;;2.65;;
62584;SDS011;48643;51.670;5.808;2022-07-06T02:01:06;4.93;;;2.85;;
62584;SDS011;48643;51.670;5.808;2022-07-06T02:03:33;3.30;;;2.60;;
62584;SDS011;48643;51.670;5.808;2022-07-06T02:06:02;5.53;;;2.50;;
62584;SDS011;48643;51.670;5.808;2022-07-06T02:08:30;4.07;;;2.70;;
62584;SDS011;48643;51.670;5.808;2022-07-06T02:10:57;5.13;;;2.80;;
62584;SDS011;48643;51.670;5.808;2022-07-06T02:13:25;3.33;;;2.75;;
62584;SDS011;48643;51.670;5.808;2022-07-06T02:15:52;4.05;;;2.40;;
62584;SDS011;48643;51.670;5.808;2022-07-06T02:18:20;3.95;;;2.58;;
62584;SDS011;48643;51.670;5.808;2022-07-06T02:20:48;5.40;;;2.53;;
62584;SDS011;48643;51.670;5.808;2022-07-06T02:23:15;4.03;;;2.50;;
62584;SDS011;48643;51.670;5.808;2022-07-06T02:25:44;3.53;;;2.37;;
62584;SDS011;48643;51.670;5.808;2022-07-06T02:28:11;3.45;;;2.40;;
62584;SDS011;48643;51.670;5.808;2022-07-06T02:30:39;3.92;;;2.53;;
62584;SDS011;48643;51.670;5.808;2022-07-06T02:33:07;4.60;;;2.60;;
62584;SDS011;48643;51.670;5.808;2022-07-06T02:35:36;4.93;;;2.38;;
62584;SDS011;48643;51.670;5.808;2022-07-06T02:38:09;3.55;;;2.50;;
62584;SDS011;48643;51.670;5.808;2022-07-06T02:40:37;3.92;;;2.50;;
62584;SDS011;48643;51.670;5.808;2022-07-06T02:43:05;4.18;;;2.60;;
62584;SDS011;48643;51.670;5.808;2022-07-06T02:45:34;4.57;;;2.45;;
62584;SDS011;48643;51.670;5.808;2022-07-06T02:48:02;4.78;;;2.70;;
62584;SDS011;48643;51.670;5.808;2022-07-06T02:50:33;4.32;;;2.40;;
62584;SDS011;48643;51.670;5.808;2022-07-06T02:53:00;4.03;;;2.53;;
62584;SDS011;48643;51.670;5.808;2022-07-06T02:55:29;5.35;;;2.50;;
62584;SDS011;48643;51.670;5.808;2022-07-06T02:57:57;4.82;;;2.40;;
62584;SDS011;48643;51.670;5.808;2022-07-06T03:00:25;6.80;;;2.70;;
62584;SDS011;48643;51.670;5.808;2022-07-06T03:02:54;5.53;;;2.30;;
62584;SDS011;48643;51.670;5.808;2022-07-06T03:05:22;3.55;;;2.50;;
62584;SDS011;48643;51.670;5.808;2022-07-06T03:07:50;3.30;;;2.40;;
62584;SDS011;48643;51.670;5.808;2022-07-06T03:10:18;3.33;;;2.38;;
62584;SDS011;48643;51.670;5.808;2022-07-06T03:12:46;4.85;;;2.30;;
62584;SDS011;48643;51.670;5.808;2022-07-06T03:15:13;6.25;;;2.40;;
62584;SDS011;48643;51.670;5.808;2022-07-06T03:17:44;4.10;;;2.47;;
62584;SDS011;48643;51.670;5.808;2022-07-06T03:20:13;3.97;;;2.38;;
62584;SDS011;48643;51.670;5.808;2022-07-06T03:22:40;5.60;;;2.40;;
62584;SDS011;48643;51.670;5.808;2022-07-06T03:27:38;5.20;;;2.22;;
62584;SDS011;48643;51.670;5.808;2022-07-06T03:30:07;5.53;;;2.20;;
62584;SDS011;48643;51.670;5.808;2022-07-06T03:32:41;4.70;;;2.42;;
62584;SDS011;48643;51.670;5.808;2022-07-06T03:35:10;4.50;;;2.40;;
62584;SDS011;48643;51.670;5.808;2022-07-06T03:37:37;4.72;;;2.50;;
62584;SDS011;48643;51.670;5.808;2022-07-06T03:40:05;4.60;;;2.60;;
62584;SDS011;48643;51.670;5.808;2022-07-06T03:42:33;5.15;;;2.30;;
62584;SDS011;48643;51.670;5.808;2022-07-06T03:45:00;4.97;;;2.60;;
62584;SDS011;48643;51.670;5.808;2022-07-06T03:47:28;4.13;;;2.40;;
62584;SDS011;48643;51.670;5.808;2022-07-06T03:49:56;4.15;;;2.63;;
62584;SDS011;48643;51.670;5.808;2022-07-06T03:52:23;3.00;;;2.25;;
62584;SDS011;48643;51.670;5.808;2022-07-06T03:54:54;5.43;;;2.42;;
62584;SDS011;48643;51.670;5.808;2022-07-06T03:57:26;3.92;;;2.53;;
62584;SDS011;48643;51.670;5.808;2022-07-06T03:59:56;5.05;;;2.45;;
62584;SDS011;48643;51.670;5.808;2022-07-06T04:02:24;3.00;;;2.25;;
62584;SDS011;48643;51.670;5.808;2022-07-06T04:04:52;4.55;;;2.30;;
62584;SDS011;48643;51.670;5.808;2022-07-06T04:07:20;3.67;;;2.42;;
62584;SDS011;48643;51.670;5.808;2022-07-06T04:09:48;3.42;;;2.20;;
62584;SDS011;48643;51.670;5.808;2022-07-06T04:12:15;4.25;;;2.50;;
62584;SDS011;48643;51.670;5.808;2022-07-06T04:14:43;3.30;;;2.33;;
62584;SDS011;48643;51.670;5.808;2022-07-06T04:17:10;5.85;;;2.70;;
62584;SDS011;48643;51.670;5.808;2022-07-06T04:19:57;5.60;;;2.42;;
62584;SDS011;48643;51.670;5.808;2022-07-06T04:22:25;5.60;;;2.47;;
62584;SDS011;48643;51.670;5.808;2022-07-06T04:24:53;6.28;;;2.40;;
62584;SDS011;48643;51.670;5.808;2022-07-06T04:27:21;5.30;;;2.33;;
62584;SDS011;48643;51.670;5.808;2022-07-06T04:29:48;6.00;;;2.63;;
62584;SDS011;48643;51.670;5.808;2022-07-06T04:32:16;4.65;;;2.40;;
62584;SDS011;48643;51.670;5.808;2022-07-06T04:34:50;5.40;;;2.50;;
62584;SDS011;48643;51.670;5.808;2022-07-06T04:37:17;4.13;;;2.35;;
62584;SDS011;48643;51.670;5.808;2022-07-06T04:39:45;4.30;;;2.40;;
62584;SDS011;48643;51.670;5.808;2022-07-06T04:42:13;4.13;;;2.40;;
62584;SDS011;48643;51.670;5.808;2022-07-06T04:44:40;4.20;;;2.30;;
62584;SDS011;48643;51.670;5.808;2022-07-06T04:47:08;5.25;;;2.60;;
62584;SDS011;48643;51.670;5.808;2022-07-06T04:49:35;4.05;;;2.38;;
62584;SDS011;48643;51.670;5.808;2022-07-06T04:52:03;3.67;;;2.38;;
62584;SDS011;48643;51.670;5.808;2022-07-06T04:54:32;7.70;;;2.38;;
62584;SDS011;48643;51.670;5.808;2022-07-06T04:56:59;5.97;;;2.42;;
62584;SDS011;48643;51.670;5.808;2022-07-06T04:59:27;5.22;;;2.50;;
62584;SDS011;48643;51.670;5.808;2022-07-06T05:01:54;3.63;;;2.30;;
62584;SDS011;48643;51.670;5.808;2022-07-06T05:04:22;4.97;;;2.38;;
62584;SDS011;48643;51.670;5.808;2022-07-06T05:06:51;5.18;;;2.40;;
62584;SDS011;48643;51.670;5.808;2022-07-06T05:09:18;4.15;;;2.58;;
62584;SDS011;48643;51.670;5.808;2022-07-06T05:11:47;5.05;;;2.35;;
62584;SDS011;48643;51.670;5.808;2022-07-06T05:14:14;5.18;;;2.40;;
62584;SDS011;48643;51.670;5.808;2022-07-06T05:16:42;6.97;;;2.50;;
62584;SDS011;48643;51.670;5.808;2022-07-06T05:19:09;3.97;;;2.35;;
62584;SDS011;48643;51.670;5.808;2022-07-06T05:21:37;5.45;;;2.55;;
62584;SDS011;48643;51.670;5.808;2022-07-06T05:26:34;3.60;;;2.40;;
62584;SDS011;48643;51.670;5.808;2022-07-06T05:29:01;6.05;;;2.60;;
62584;SDS011;48643;51.670;5.808;2022-07-06T05:31:29;6.57;;;2.22;;
62584;SDS011;48643;51.670;5.808;2022-07-06T05:33:57;4.67;;;2.30;;
62584;SDS011;48643;51.670;5.808;2022-07-06T05:36:26;4.60;;;2.20;;
62584;SDS011;48643;51.670;5.808;2022-07-06T05:38:53;6.38;;;2.50;;
62584;SDS011;48643;51.670;5.808;2022-07-06T05:41:22;4.50;;;2.40;;
62584;SDS011;48643;51.670;5.808;2022-07-06T05:43:56;9.27;;;2.65;;
62584;SDS011;48643;51.670;5.808;2022-07-06T05:46:24;6.15;;;2.50;;
62584;SDS011;48643;51.670;5.808;2022-07-06T05:48:52;6.10;;;2.50;;
62584;SDS011;48643;51.670;5.808;2022-07-06T05:51:37;3.67;;;2.30;;
62584;SDS011;48643;51.670;5.808;2022-07-06T05:54:06;4.95;;;2.65;;
62584;SDS011;48643;51.670;5.808;2022-07-06T05:56:33;3.97;;;2.40;;
62584;SDS011;48643;51.670;5.808;2022-07-06T05:59:01;6.10;;;2.50;;
62584;SDS011;48643;51.670;5.808;2022-07-06T06:01:30;4.85;;;2.30;;
62584;SDS011;48643;51.670;5.808;2022-07-06T06:04:06;5.88;;;2.50;;
62584;SDS011;48643;51.670;5.808;2022-07-06T06:06:34;4.72;;;2.40;;
62584;SDS011;48643;51.670;5.808;2022-07-06T06:09:01;3.65;;;2.33;;
62584;SDS011;48643;51.670;5.808;2022-07-06T06:11:29;6.38;;;2.60;;
62584;SDS011;48643;51.670;5.808;2022-07-06T06:13:56;4.95;;;2.50;;
62584;SDS011;48643;51.670;5.808;2022-07-06T06:16:24;6.53;;;2.47;;
62584;SDS011;48643;51.670;5.808;2022-07-06T06:18:51;4.75;;;2.40;;
62584;SDS011;48643;51.670;5.808;2022-07-06T06:21:19;5.82;;;2.45;;
62584;SDS011;48643;51.670;5.808;2022-07-06T06:23:46;3.45;;;2.30;;
62584;SDS011;48643;51.670;5.808;2022-07-06T06:26:13;4.97;;;2.60;;
62584;SDS011;48643;51.670;5.808;2022-07-06T06:28:41;6.70;;;2.30;;
62584;SDS011;48643;51.670;5.808;2022-07-06T06:31:08;6.97;;;2.70;;
62584;SDS011;48643;51.670;5.808;2022-07-06T06:33:35;9.45;;;2.50;;
62584;SDS011;48643;51.670;5.808;2022-07-06T06:36:03;5.05;;;2.40;;
62584;SDS011;48643;51.670;5.808;2022-07-06T06:38:30;4.03;;;2.50;;
62584;SDS011;48643;51.670;5.808;2022-07-06T06:40:58;5.95;;;2.13;;
62584;SDS011;48643;51.670;5.808;2022-07-06T06:43:40;4.03;;;2.10;;
62584;SDS011;48643;51.670;5.808;2022-07-06T06:46:12;3.83;;;2.22;;
62584;SDS011;48643;51.670;5.808;2022-07-06T06:48:40;4.32;;;2.22;;
62584;SDS011;48643;51.670;5.808;2022-07-06T06:51:07;4.97;;;2.50;;
62584;SDS011;48643;51.670;5.808;2022-07-06T06:53:35;5.35;;;2.20;;
62584;SDS011;48643;51.670;5.808;2022-07-06T06:56:05;5.85;;;2.20;;
62584;SDS011;48643;51.670;5.808;2022-07-06T06:58:33;6.55;;;2.40;;
62584;SDS011;48643;51.670;5.808;2022-07-06T07:01:20;3.75;;;2.15;;
62584;SDS011;48643;51.670;5.808;2022-07-06T07:03:48;6.32;;;2.08;;
62584;SDS011;48643;51.670;5.808;2022-07-06T07:06:15;4.22;;;1.80;;
62584;SDS011;48643;51.670;5.808;2022-07-06T07:08:42;6.38;;;2.28;;
62584;SDS011;48643;51.670;5.808;2022-07-06T07:11:10;9.43;;;2.05;;
62584;SDS011;48643;51.670;5.808;2022-07-06T07:13:37;4.55;;;1.85;;
62584;SDS011;48643;51.670;5.808;2022-07-06T07:16:05;4.25;;;1.70;;
62584;SDS011;48643;51.670;5.808;2022-07-06T07:18:32;4.68;;;1.90;;
62584;SDS011;48643;51.670;5.808;2022-07-06T07:21:00;3.88;;;1.70;;
62584;SDS011;48643;51.670;5.808;2022-07-06T07:23:27;3.28;;;1.80;;
62584;SDS011;48643;51.670;5.808;2022-07-06T07:25:55;9.05;;;1.75;;
62584;SDS011;48643;51.670;5.808;2022-07-06T07:28:22;5.03;;;1.60;;
62584;SDS011;48643;51.670;5.808;2022-07-06T07:30:50;5.35;;;1.60;;
62584;SDS011;48643;51.670;5.808;2022-07-06T07:33:17;6.05;;;1.70;;
62584;SDS011;48643;51.670;5.808;2022-07-06T07:35:45;7.75;;;2.00;;
62584;SDS011;48643;51.670;5.808;2022-07-06T07:38:12;5.10;;;1.42;;
62584;SDS011;48643;51.670;5.808;2022-07-06T07:40:39;7.93;;;1.48;;
62584;SDS011;48643;51.670;5.808;2022-07-06T07:43:07;9.98;;;2.30;;
62584;SDS011;48643;51.670;5.808;2022-07-06T07:45:34;3.25;;;1.70;;
62584;SDS011;48643;51.670;5.808;2022-07-06T07:48:02;5.80;;;1.77;;
62584;SDS011;48643;51.670;5.808;2022-07-06T07:50:29;5.82;;;1.80;;
62584;SDS011;48643;51.670;5.808;2022-07-06T07:52:57;5.28;;;1.70;;
62584;SDS011;48643;51.670;5.808;2022-07-06T07:55:24;4.15;;;1.58;;
62584;SDS011;48643;51.670;5.808;2022-07-06T07:58:07;2.53;;;1.50;;
62584;SDS011;48643;51.670;5.808;2022-07-06T08:00:35;6.22;;;1.67;;
62584;SDS011;48643;51.670;5.808;2022-07-06T08:03:02;3.58;;;1.70;;
62584;SDS011;48643;51.670;5.808;2022-07-06T08:05:30;4.85;;;1.58;;
62584;SDS011;48643;51.670;5.808;2022-07-06T08:07:57;3.45;;;1.58;;
62584;SDS011;48643;51.670;5.808;2022-07-06T08:10:24;5.95;;;1.60;;
62584;SDS011;48643;51.670;5.808;2022-07-06T08:12:52;3.65;;;1.60;;
62584;SDS011;48643;51.670;5.808;2022-07-06T08:15:19;3.45;;;1.55;;
62584;SDS011;48643;51.670;5.808;2022-07-06T08:17:47;3.28;;;1.40;;
62584;SDS011;48643;51.670;5.808;2022-07-06T08:20:14;3.15;;;1.40;;
62584;SDS011;48643;51.670;5.808;2022-07-06T08:22:42;3.00;;;1.50;;
62584;SDS011;48643;51.670;5.808;2022-07-06T08:25:09;4.25;;;1.60;;
62584;SDS011;48643;51.670;5.808;2022-07-06T08:27:36;2.85;;;1.27;;
62584;SDS011;48643;51.670;5.808;2022-07-06T08:30:04;4.60;;;1.70;;
62584;SDS011;48643;51.670;5.808;2022-07-06T08:32:32;3.78;;;1.50;;
62584;SDS011;48643;51.670;5.808;2022-07-06T08:35:19;2.95;;;1.63;;
62584;SDS011;48643;51.670;5.808;2022-07-06T08:37:46;4.72;;;1.70;;
62584;SDS011;48643;51.670;5.808;2022-07-06T08:40:13;3.90;;;1.80;;
62584;SDS011;48643;51.670;5.808;2022-07-06T08:42:41;4.38;;;1.63;;
62584;SDS011;48643;51.670;5.808;2022-07-06T08:45:09;7.00;;;1.55;;
62584;SDS011;48643;51.670;5.808;2022-07-06T08:47:36;3.28;;;1.70;;
62584;SDS011;48643;51.670;5.808;2022-07-06T08:50:04;2.45;;;1.60;;
62584;SDS011;48643;51.670;5.808;2022-07-06T08:52:32;4.50;;;1.70;;
62584;SDS011;48643;51.670;5.808;2022-07-06T08:55:00;3.07;;;1.43;;
62584;SDS011;48643;51.670;5.808;2022-07-06T08:57:28;5.40;;;1.90;;
62584;SDS011;48643;51.670;5.808;2022-07-06T08:59:55;4.53;;;1.70;;
62584;SDS011;48643;51.670;5.808;2022-07-06T09:02:23;3.55;;;1.70;;
62584;SDS011;48643;51.670;5.808;2022-07-06T09:04:54;3.65;;;1.58;;
62584;SDS011;48643;51.670;5.808;2022-07-06T09:07:22;2.30;;;1.52;;
62584;SDS011;48643;51.670;5.808;2022-07-06T09:10:10;5.15;;;1.80;;
62584;SDS011;48643;51.670;5.808;2022-07-06T09:12:38;1.60;;;1.42;;
62584;SDS011;48643;51.670;5.808;2022-07-06T09:15:06;3.55;;;1.67;;
62584;SDS011;48643;51.670;5.808;2022-07-06T09:17:37;6.05;;;2.00;;
62584;SDS011;48643;51.670;5.808;2022-07-06T09:20:08;4.03;;;1.90;;
62584;SDS011;48643;51.670;5.808;2022-07-06T09:22:36;5.72;;;1.55;;
62584;SDS011;48643;51.670;5.808;2022-07-06T09:25:14;4.47;;;1.90;;
62584;SDS011;48643;51.670;5.808;2022-07-06T09:27:42;3.47;;;1.42;;
62584;SDS011;48643;51.670;5.808;2022-07-06T09:30:13;2.72;;;1.70;;
62584;SDS011;48643;51.670;5.808;2022-07-06T09:32:42;3.65;;;1.58;;
62584;SDS011;48643;51.670;5.808;2022-07-06T09:35:26;3.47;;;1.70;;
62584;SDS011;48643;51.670;5.808;2022-07-06T09:38:07;4.53;;;1.60;;
62584;SDS011;48643;51.670;5.808;2022-07-06T09:40:35;3.28;;;1.50;;
62584;SDS011;48643;51.670;5.808;2022-07-06T09:43:19;2.65;;;1.45;;
62584;SDS011;48643;51.670;5.808;2022-07-06T09:50:46;3.03;;;1.48;;
62584;SDS011;48643;51.670;5.808;2022-07-06T09:53:14;2.28;;;1.48;;
62584;SDS011;48643;51.670;5.808;2022-07-06T09:55:45;2.58;;;1.50;;
62584;SDS011;48643;51.670;5.808;2022-07-06T09:58:17;3.45;;;1.58;;
62584;SDS011;48643;51.670;5.808;2022-07-06T10:01:04;2.70;;;1.50;;
62584;SDS011;48643;51.670;5.808;2022-07-06T10:03:32;1.93;;;1.60;;
62584;SDS011;48643;51.670;5.808;2022-07-06T10:06:00;2.75;;;1.50;;
62584;SDS011;48643;51.670;5.808;2022-07-06T10:08:27;2.38;;;1.48;;
62584;SDS011;48643;51.670;5.808;2022-07-06T10:10:55;1.95;;;1.35;;
62584;SDS011;48643;51.670;5.808;2022-07-06T10:13:23;1.90;;;1.42;;
62584;SDS011;48643;51.670;5.808;2022-07-06T10:15:51;3.25;;;1.33;;
62584;SDS011;48643;51.670;5.808;2022-07-06T10:18:19;1.75;;;1.30;;
62584;SDS011;48643;51.670;5.808;2022-07-06T10:20:47;2.45;;;1.30;;
62584;SDS011;48643;51.670;5.808;2022-07-06T10:23:14;2.17;;;1.53;;
62584;SDS011;48643;51.670;5.808;2022-07-06T10:25:42;1.90;;;1.30;;
62584;SDS011;48643;51.670;5.808;2022-07-06T10:28:10;4.20;;;1.63;;
62584;SDS011;48643;51.670;5.808;2022-07-06T10:30:41;3.58;;;1.70;;
62584;SDS011;48643;51.670;5.808;2022-07-06T10:33:09;2.47;;;1.55;;
62584;SDS011;48643;51.670;5.808;2022-07-06T10:35:39;2.88;;;1.55;;
62584;SDS011;48643;51.670;5.808;2022-07-06T10:38:07;1.90;;;1.42;;
62584;SDS011;48643;51.670;5.808;2022-07-06T10:40:36;3.67;;;1.45;;
62584;SDS011;48643;51.670;5.808;2022-07-06T10:43:22;2.63;;;1.60;;
62584;SDS011;48643;51.670;5.808;2022-07-06T10:45:51;3.30;;;1.42;;
62584;SDS011;48643;51.670;5.808;2022-07-06T10:48:19;2.75;;;1.60;;
62584;SDS011;48643;51.670;5.808;2022-07-06T10:50:52;2.40;;;1.30;;
62584;SDS011;48643;51.670;5.808;2022-07-06T10:53:54;1.98;;;1.45;;
62584;SDS011;48643;51.670;5.808;2022-07-06T10:56:13;1.90;;;1.30;;
62584;SDS011;48643;51.670;5.808;2022-07-06T10:58:48;3.47;;;1.30;;
62584;SDS011;48643;51.670;5.808;2022-07-06T11:01:22;2.30;;;1.33;;
62584;SDS011;48643;51.670;5.808;2022-07-06T11:03:51;2.35;;;1.42;;
62584;SDS011;48643;51.670;5.808;2022-07-06T11:06:32;2.17;;;1.38;;
62584;SDS011;48643;51.670;5.808;2022-07-06T11:14:02;5.47;;;1.30;;
62584;SDS011;48643;51.670;5.808;2022-07-06T11:16:32;5.40;;;1.60;;
62584;SDS011;48643;51.670;5.808;2022-07-06T11:21:32;2.50;;;1.38;;
62584;SDS011;48643;51.670;5.808;2022-07-06T11:24:00;1.65;;;1.17;;
62584;SDS011;48643;51.670;5.808;2022-07-06T11:26:27;5.22;;;1.70;;
62584;SDS011;48643;51.670;5.808;2022-07-06T11:28:59;5.00;;;1.30;;
62584;SDS011;48643;51.670;5.808;2022-07-06T11:31:27;5.75;;;1.73;;
62584;SDS011;48643;51.670;5.808;2022-07-06T11:33:55;3.97;;;1.38;;
62584;SDS011;48643;51.670;5.808;2022-07-06T11:36:22;4.45;;;1.35;;
62584;SDS011;48643;51.670;5.808;2022-07-06T11:38:50;4.00;;;1.60;;
62584;SDS011;48643;51.670;5.808;2022-07-06T11:41:18;3.10;;;1.50;;
62584;SDS011;48643;51.670;5.808;2022-07-06T11:43:46;4.17;;;1.20;;
62584;SDS011;48643;51.670;5.808;2022-07-06T11:46:23;5.20;;;1.45;;
62584;SDS011;48643;51.670;5.808;2022-07-06T11:48:53;4.38;;;1.65;;
62584;SDS011;48643;51.670;5.808;2022-07-06T11:51:21;7.20;;;1.50;;
62584;SDS011;48643;51.670;5.808;2022-07-06T11:53:50;3.22;;;1.33;;
62584;SDS011;48643;51.670;5.808;2022-07-06T11:56:21;1.95;;;1.05;;
62584;SDS011;48643;51.670;5.808;2022-07-06T11:58:52;5.95;;;1.40;;
62584;SDS011;48643;51.670;5.808;2022-07-06T12:03:47;5.53;;;1.65;;
62584;SDS011;48643;51.670;5.808;2022-07-06T12:06:19;4.18;;;1.42;;
62584;SDS011;48643;51.670;5.808;2022-07-06T12:11:24;5.10;;;1.60;;
62584;SDS011;48643;51.670;5.808;2022-07-06T12:13:56;8.20;;;1.80;;
62584;SDS011;48643;51.670;5.808;2022-07-06T12:16:33;4.45;;;1.38;;
62584;SDS011;48643;51.670;5.808;2022-07-06T12:19:06;7.25;;;1.40;;
62584;SDS011;48643;51.670;5.808;2022-07-06T12:21:41;3.28;;;1.50;;
62584;SDS011;48643;51.670;5.808;2022-07-06T12:24:09;6.50;;;1.38;;
62584;SDS011;48643;51.670;5.808;2022-07-06T12:26:40;2.42;;;1.23;;
62584;SDS011;48643;51.670;5.808;2022-07-06T12:29:10;5.32;;;1.17;;
62584;SDS011;48643;51.670;5.808;2022-07-06T12:34:13;6.20;;;1.30;;
62584;SDS011;48643;51.670;5.808;2022-07-06T12:36:45;4.20;;;1.23;;
62584;SDS011;48643;51.670;5.808;2022-07-06T12:39:13;4.45;;;1.42;;
62584;SDS011;48643;51.670;5.808;2022-07-06T12:41:43;5.32;;;1.20;;
62584;SDS011;48643;51.670;5.808;2022-07-06T12:44:12;3.03;;;1.20;;
62584;SDS011;48643;51.670;5.808;2022-07-06T12:46:40;5.05;;;1.50;;
62584;SDS011;48643;51.670;5.808;2022-07-06T12:54:46;1.63;;;1.00;;
62584;SDS011;48643;51.670;5.808;2022-07-06T12:57:22;2.85;;;1.17;;
62584;SDS011;48643;51.670;5.808;2022-07-06T12:59:57;5.28;;;1.20;;
62584;SDS011;48643;51.670;5.808;2022-07-06T13:02:29;2.85;;;1.48;;
62584;SDS011;48643;51.670;5.808;2022-07-06T13:05:16;7.28;;;1.40;;
62584;SDS011;48643;51.670;5.808;2022-07-06T13:07:45;4.97;;;1.67;;
62584;SDS011;48643;51.670;5.808;2022-07-06T13:10:13;3.05;;;1.45;;
62584;SDS011;48643;51.670;5.808;2022-07-06T13:12:41;4.82;;;1.13;;
62584;SDS011;48643;51.670;5.808;2022-07-06T13:15:11;4.13;;;1.27;;
62584;SDS011;48643;51.670;5.808;2022-07-06T13:17:39;5.07;;;1.30;;
62584;SDS011;48643;51.670;5.808;2022-07-06T13:20:10;3.47;;;1.40;;
62584;SDS011;48643;51.670;5.808;2022-07-06T13:22:39;5.47;;;1.50;;
62584;SDS011;48643;51.670;5.808;2022-07-06T13:25:07;4.93;;;1.40;;
62584;SDS011;48643;51.670;5.808;2022-07-06T13:27:35;6.25;;;1.45;;
62584;SDS011;48643;51.670;5.808;2022-07-06T13:30:02;5.33;;;1.20;;
62584;SDS011;48643;51.670;5.808;2022-07-06T13:32:30;3.20;;;1.40;;
62584;SDS011;48643;51.670;5.808;2022-07-06T13:37:26;4.80;;;1.25;;
62584;SDS011;48643;51.670;5.808;2022-07-06T13:39:54;2.40;;;1.03;;
62584;SDS011;48643;51.670;5.808;2022-07-06T13:42:21;4.72;;;1.30;;
62584;SDS011;48643;51.670;5.808;2022-07-06T13:44:49;5.35;;;1.42;;
62584;SDS011;48643;51.670;5.808;2022-07-06T13:47:16;4.60;;;1.40;;
62584;SDS011;48643;51.670;5.808;2022-07-06T13:49:43;3.80;;;1.45;;
62584;SDS011;48643;51.670;5.808;2022-07-06T13:52:14;3.13;;;1.23;;
62584;SDS011;48643;51.670;5.808;2022-07-06T13:54:42;3.63;;;1.27;;
62584;SDS011;48643;51.670;5.808;2022-07-06T13:57:09;4.32;;;1.38;;
62584;SDS011;48643;51.670;5.808;2022-07-06T13:59:37;4.63;;;1.85;;
62584;SDS011;48643;51.670;5.808;2022-07-06T14:02:04;3.45;;;1.30;;
62584;SDS011;48643;51.670;5.808;2022-07-06T14:04:32;5.00;;;1.50;;
62584;SDS011;48643;51.670;5.808;2022-07-06T14:06:59;3.08;;;1.17;;
62584;SDS011;48643;51.670;5.808;2022-07-06T14:09:27;3.30;;;1.40;;
62584;SDS011;48643;51.670;5.808;2022-07-06T14:11:55;4.93;;;1.50;;
62584;SDS011;48643;51.670;5.808;2022-07-06T14:14:23;4.70;;;1.30;;
62584;SDS011;48643;51.670;5.808;2022-07-06T14:16:50;7.07;;;1.70;;
62584;SDS011;48643;51.670;5.808;2022-07-06T14:19:18;6.32;;;1.42;;
62584;SDS011;48643;51.670;5.808;2022-07-06T14:21:48;3.78;;;1.30;;
62584;SDS011;48643;51.670;5.808;2022-07-06T14:24:15;13.18;;;1.77;;
62584;SDS011;48643;51.670;5.808;2022-07-06T14:26:43;3.55;;;1.30;;
62584;SDS011;48643;51.670;5.808;2022-07-06T14:29:11;7.60;;;1.33;;
62584;SDS011;48643;51.670;5.808;2022-07-06T14:31:39;4.05;;;1.25;;
62584;SDS011;48643;51.670;5.808;2022-07-06T14:34:06;6.28;;;1.42;;
62584;SDS011;48643;51.670;5.808;2022-07-06T14:36:35;5.38;;;1.60;;
62584;SDS011;48643;51.670;5.808;2022-07-06T14:39:04;2.85;;;1.30;;
62584;SDS011;48643;51.670;5.808;2022-07-06T14:41:31;4.75;;;1.35;;
62584;SDS011;48643;51.670;5.808;2022-07-06T14:43:59;2.30;;;1.10;;
62584;SDS011;48643;51.670;5.808;2022-07-06T14:46:27;4.50;;;1.30;;
62584;SDS011;48643;51.670;5.808;2022-07-06T14:48:56;4.25;;;1.30;;
62584;SDS011;48643;51.670;5.808;2022-07-06T14:51:24;4.47;;;1.40;;
62584;SDS011;48643;51.670;5.808;2022-07-06T14:53:54;3.38;;;1.50;;
62584;SDS011;48643;51.670;5.808;2022-07-06T14:56:24;5.45;;;1.40;;
62584;SDS011;48643;51.670;5.808;2022-07-06T14:58:52;7.15;;;1.40;;
62584;SDS011;48643;51.670;5.808;2022-07-06T15:01:40;5.37;;;1.30;;
62584;SDS011;48643;51.670;5.808;2022-07-06T15:04:10;8.90;;;2.28;;
62584;SDS011;48643;51.670;5.808;2022-07-06T15:06:38;4.50;;;1.40;;
62584;SDS011;48643;51.670;5.808;2022-07-06T15:09:21;4.00;;;1.52;;
62584;SDS011;48643;51.670;5.808;2022-07-06T15:11:48;6.47;;;1.85;;
62584;SDS011;48643;51.670;5.808;2022-07-06T15:14:19;5.65;;;1.60;;
62584;SDS011;48643;51.670;5.808;2022-07-06T15:16:47;9.70;;;1.80;;
62584;SDS011;48643;51.670;5.808;2022-07-06T15:19:15;4.32;;;1.55;;
62584;SDS011;48643;51.670;5.808;2022-07-06T15:21:42;4.55;;;1.60;;
62584;SDS011;48643;51.670;5.808;2022-07-06T15:24:10;3.25;;;1.80;;
62584;SDS011;48643;51.670;5.808;2022-07-06T15:26:38;3.55;;;1.77;;
62584;SDS011;48643;51.670;5.808;2022-07-06T15:29:05;4.75;;;1.85;;
62584;SDS011;48643;51.670;5.808;2022-07-06T15:31:32;6.15;;;2.00;;
62584;SDS011;48643;51.670;5.808;2022-07-06T15:34:01;4.55;;;1.80;;
62584;SDS011;48643;51.670;5.808;2022-07-06T15:36:31;7.22;;;1.92;;
62584;SDS011;48643;51.670;5.808;2022-07-06T15:38:58;5.53;;;2.08;;